Tiempo atmosférico en la estación meteorológica de San Cristóbal de La Laguna,Llano de los Loros, Santa Cruz de Tenerife (868 m.)



Fecha
DESCASC
Temp. máxima en grados centígrados (hora)
DESCASC
Temp. mínima en grados centígrados (hora)
DESCASC
Temp. media en grados centígrados
DESCASC
Racha de viento máxima en m/sg (hora)
DESCASC
Velocidad máxima media en intervalos de 10 minutos(hora)
DESCASC
Precipitaciones diarias en mm
DESCASC
Precipitaciones de 00:00 a 06:00 en mm
DESCASC
Precipitaciones de 06:00 a 12:00 en mm
DESCASC
Precipitaciones de 12:00 a 18:00 en mm
DESCASC
Precipitaciones de 18:00 a 24:00 en mm
DESCASC
22-11-2020 23.3 (13:10) 13.5 (23:59) 18.4 15 (08:20) 10.83 (01:30) 0 0 0 0 0
21-11-2020 24.8 (12:50) 14.5 (05:20) 19.6 16.67 (19:40) 11.67 (21:30) 0 0 0 0 0
20-11-2020 24.7 (12:50) 11.7 (00:40) 18.2 12.78 (08:20) 9.72 (08:20) 0 0 0 0 0
19-11-2020 23.5 (13:40) 12 (00:00) 17.8 13.61 (01:10) 9.17 (00:50) 0 0 0 0 0
18-11-2020 27.9 (11:00) 14.4 (00:00) 21.1 12.78 (23:59) 8.89 (23:59) 0 0 0 0 0
17-11-2020 29 (12:50) 17.1 (00:00) 23.1 9.72 (11:50) 5.83 (08:40) 0 0 0 0 0
16-11-2020 28 (13:00) 16 (00:00) 22 9.72 (13:30) 5.83 (13:00) 0 0 0 0 0
15-11-2020 26.3 (11:30) 16.9 (00:00) 21.6 7.22 (14:00) 3.89 (04:20) 0 0 0 0 0
14-11-2020 26.2 (12:20) 15.8 (00:00) 21 9.44 (01:20) 6.11 (13:10) 0 0 0 0 0
13-11-2020 19.6 (15:10) 16 (00:00) 17.8 11.11 (13:00) 6.67 (11:50) 0 0 0 0 0
12-11-2020 24.6 (12:10) 15.6 (00:00) 20.1 7.78 (04:30) 5.83 (04:30) 0.2 0.2 0 0 0
11-11-2020 20.3 (13:50) 10.8 (00:00) 15.5 9.72 (20:20) 5.56 (21:00) 0 0 0 0 0
10-11-2020 18.6 (12:40) 10.6 (00:00) 14.6 11.94 (08:40) 8.06 (08:40) 0.4 0.4 0 0 0
09-11-2020 16.4 (14:30) 12.4 (00:00) 14.4 8.89 (21:20) 5.28 (21:40) 3.4 1.4 0.6 1 0.4
08-11-2020 16.1 (13:40) 11.5 (00:00) 13.8 8.06 (08:40) 5.83 (07:50) 0.2 0 0.2 0 0
07-11-2020 20 (12:30) 11.6 (00:00) 15.8 5.28 (10:10) 3.33 (12:00) 0.6 0 0 0.6 0
06-11-2020 16.4 (12:40) 10.8 (00:00) 13.6 14.72 (09:30) 6.67 (09:30) 6.4 2 4.4 0 0
05-11-2020 16.4 (16:00) 10.5 (00:00) 13.4 10.28 (00:50) 4.44 (02:30) 2.8 2.6 0 0 0.2
04-11-2020 14.5 (01:40) 11.3 (00:00) 12.9 11.94 (18:00) 6.11 (18:00) 43.4 1.2 13.4 19.8 9
03-11-2020 17.1 (12:20) 13.7 (00:00) 15.4 13.06 (23:40) 5.83 (23:40) 0.2 0.2 0 0 0
02-11-2020 18.8 (00:10) 14.2 (00:00) 16.5 12.22 (09:40) 6.94 (06:30) 0 0 0 0 0
01-11-2020 28.7 (12:30) 17.8 (00:00) 23.3 16.11 (04:00) 8.61 (04:20) 0 0 0 0 0
31-10-2020 27.5 (12:30) 16.6 (00:00) 22.1 18.89 (04:30) 13.61 (04:20) 0 0 0 0 0
30-10-2020 25.3 (13:30) 13.6 (00:00) 19.4 13.06 (23:40) 9.72 (23:40) 0 0 0 0 0
29-10-2020 17.4 (13:10) 12.2 (00:00) 14.8 12.78 (23:50) 8.33 (21:10) 0.2 0.2 0 0 0
28-10-2020 15.4 (14:20) 12.3 (00:00) 13.8 9.72 (22:10) 3.61 (22:30) 3.2 1 0.2 0.8 1.2
27-10-2020 18.1 (14:30) 13.1 (00:00) 15.6 12.78 (12:30) 5 (12:40) 0.2 0 0 0 0.2
26-10-2020 19.9 (13:10) 12.5 (00:00) 16.2 11.67 (03:40) 6.11 (08:30) 0 0 0 0 0
25-10-2020 17.4 (11:50) 12.6 (00:00) 15 11.94 (01:50) 6.94 (20:00) 0 0 0 0 0

Gráficas

Temp. máximas Temp. mínimas Temp. medias Precipitaciones Rachas de viento máximas Velocidades máximas media en intervalos de 10 minutos

Datos horarios

Fecha y hora oficial Temperatura (ºC) Velocidad del viento (km/h) Dirección del viento Racha (km/h) Dirección de racha Precipitación (mm) Presión (hPa) Tendencia (hPa) Humedad (%)
2020-11-23 23:00:00 13.6 10 Sur 23 Sur 0 -- -- 47
2020-11-23 22:00:00 14 13 Sur 21 Sur 0 -- -- 53
2020-11-23 21:00:00 13.8 10 Sur 23 Sudeste 0 -- -- 48
2020-11-23 20:00:00 14.1 10 Sudeste 18 Sur 0 -- -- 46
2020-11-23 19:00:00 13.4 6 Sudeste 12 Sur 0 -- -- 51
2020-11-23 18:00:00 15 7 Sudeste 13 Sudeste 0 -- -- 52
2020-11-23 17:00:00 17.5 9 Sur 19 Sudeste 0 -- -- 47
2020-11-23 16:00:00 18.8 10 Sur 23 Sudeste 0 -- -- 46
2020-11-23 15:00:00 19.5 11 Sur 31 Sudeste 0 -- -- 46
2020-11-23 14:00:00 21.4 18 Sur 36 Sur 0 -- -- 44
2020-11-23 13:00:00 23.7 16 Sudeste 31 Sudeste 0 -- -- 48
2020-11-23 12:00:00 20.2 13 Sudeste 27 Sur 0 -- -- 56
2020-11-23 11:00:00 19.4 9 Sur 28 Sur 0 -- -- 56
2020-11-23 10:00:00 15.9 10 Sur 24 Sudeste 0 -- -- 72
2020-11-23 09:00:00 14.5 16 Sur 32 Sudeste 0 -- -- 99
2020-11-23 08:00:00 14 28 Sudeste 37 Sudeste 0 -- -- 99
2020-11-23 07:00:00 13.7 22 Sudeste 35 Sudeste 0 -- -- 99
2020-11-23 06:00:00 13.8 24 Sudeste 34 Sur 0 -- -- 98
2020-11-23 05:00:00 13.6 21 Sudeste 41 Sudeste 0 -- -- 96
2020-11-23 04:00:00 13.4 25 Sudeste 39 Sudeste 0 -- -- 82
2020-11-23 03:00:00 13.6 23 Sudeste 36 Sudeste 0 -- -- 91
2020-11-23 02:00:00 13.6 23 Sudeste 35 Sudeste 0 -- -- 85
2020-11-23 01:00:00 14 24 Sudeste 32 Sudeste 0 -- -- 91
2020-11-23 00:00:00 13.5 21 Sudeste 27 Sudeste 0 -- -- 92
2020-11-22 23:00:00 14.3 19 Sudeste 29 Este 0 -- -- 92
2020-11-22 22:00:00 14.4 19 Sudeste 25 Sudeste 0 -- -- 87
2020-11-22 21:00:00 14.6 20 Sudeste 31 Sudeste 0 -- -- 63
2020-11-22 20:00:00 15.2 18 Sudeste 31 Este 0 -- -- 49
2020-11-22 19:00:00 14.6 20 Este 27 Este 0 -- -- 61
2020-11-22 18:00:00 14.4 9 Este 16 Este 0 -- -- 89
2020-11-22 17:00:00 16.6 9 Sudeste 20 Sudeste 0 -- -- 79
2020-11-22 16:00:00 20.4 12 Sudeste 24 Sudeste 0 -- -- 58
2020-11-22 15:00:00 21.7 10 Sudeste 17 Sur 0 -- -- 53
2020-11-22 14:00:00 21.1 12 Sur 28 Sudeste 0 -- -- 57
2020-11-22 13:00:00 23.2 15 Sur 27 Sudeste 0 -- -- 57
2020-11-22 12:00:00 20.8 15 Sur 30 Sudeste 0 -- -- 63
2020-11-22 11:00:00 20.9 18 Sur 31 Sudeste 0 -- -- 67
2020-11-22 10:00:00 19.4 24 Sudeste 39 Sudeste 0 -- -- 72
2020-11-22 09:00:00 16 28 Sudeste 54 Este 0 -- -- 78
2020-11-22 08:00:00 14.2 38 Sudeste 53 Sudeste 0 -- -- 64
2020-11-22 07:00:00 13.8 33 Sudeste 49 Sudeste 0 -- -- 70
2020-11-22 06:00:00 13.8 35 Sudeste 51 Sudeste 0 -- -- 67
2020-11-22 05:00:00 14 37 Sudeste 49 Sudeste 0 -- -- 64
2020-11-22 04:00:00 13.8 33 Sudeste 49 Sudeste 0 -- -- 70
2020-11-22 03:00:00 13.8 34 Sudeste 49 Sudeste 0 -- -- 75
2020-11-22 02:00:00 14 37 Sudeste 51 Sudeste 0 -- -- 67
2020-11-22 01:00:00 14.2 31 Sudeste 49 Sudeste 0 -- -- 79
2020-11-22 00:00:00 14.6 39 Sudeste 52 Este 0 -- -- 58
2020-11-21 23:00:00 14.7 35 Sudeste 49 Sudeste 0 -- -- 55
2020-11-21 22:00:00 15.2 36 Sudeste 57 Sudeste 0 -- -- 50
2020-11-21 21:00:00 15.4 39 Sudeste 59 Sudeste 0 -- -- 48
2020-11-21 20:00:00 15.8 38 Sudeste 60 Este 0 -- -- 51
2020-11-21 19:00:00 15.8 35 Sudeste 55 Sudeste 0 -- -- 51
2020-11-21 18:00:00 16 30 Sudeste 45 Sudeste 0 -- -- 48
2020-11-21 17:00:00 17.1 26 Sudeste 45 Sudeste 0 -- -- 50
2020-11-21 16:00:00 19.7 27 Sudeste 45 Sudeste 0 -- -- 46
2020-11-21 15:00:00 22 26 Sudeste 43 Sur 0 -- -- 45
2020-11-21 14:00:00 23.2 32 Sudeste 44 Sudeste 0 -- -- 39
2020-11-21 13:00:00 24.3 31 Sudeste 48 Sur 0 -- -- 36
2020-11-21 12:00:00 23.5 30 Sudeste 40 Este 0 -- -- 40
2020-11-21 11:00:00 23.8 23 Sudeste 32 Sudeste 0 -- -- 46
2020-11-21 10:00:00 22.4 21 Sudeste 28 Sudeste 0 -- -- 54
2020-11-21 09:00:00 19.1 22 Sudeste 36 Este 0 -- -- 63
2020-11-21 08:00:00 15.2 24 Sudeste 37 Nordeste 0 -- -- 64
2020-11-21 07:00:00 14.8 22 Sudeste 36 Este 0 -- -- 52
2020-11-21 06:00:00 14.7 19 Sudeste 33 Este 0 -- -- 51
2020-11-21 05:00:00 14.8 26 Sudeste 36 Sudeste 0 -- -- 51
2020-11-21 04:00:00 14.8 22 Sudeste 37 Sudeste 0 -- -- 54
2020-11-21 03:00:00 15 22 Sudeste 32 Este 0 -- -- 47
2020-11-21 02:00:00 14.8 18 Sudeste 24 Sudeste 0 -- -- 49
2020-11-21 01:00:00 15.8 21 Sudeste 29 Sudeste 0 -- -- 46
2020-11-21 00:00:00 16.1 22 Sudeste 31 Sudeste 0 -- -- 45
2020-11-20 23:00:00 16.4 13 Sudeste 18 Sur 0 -- -- 47
2020-11-20 22:00:00 15.6 5 Sudeste 14 Este 0 -- -- 49
2020-11-20 21:00:00 15.8 8 Sudeste 17 Sur 0 -- -- 51
2020-11-20 20:00:00 15.8 9 Sudeste 16 Sudeste 0 -- -- 52
2020-11-20 19:00:00 16.1 10 Sudeste 18 Sudoeste 0 -- -- 58
2020-11-20 18:00:00 16.8 7 Sur 19 Sur 0 -- -- 57
2020-11-20 17:00:00 18.6 6 Sudoeste 26 Sudeste 0 -- -- 50
2020-11-20 16:00:00 21.5 16 Sur 30 Sur 0 -- -- 48
2020-11-20 15:00:00 23.3 15 Sur 36 Sur 0 -- -- 45
2020-11-20 14:00:00 24 19 Sudeste 33 Sur 0 -- -- 45
2020-11-20 13:00:00 24.7 18 Sudeste 29 Sur 0 -- -- 47
2020-11-20 12:00:00 23.8 12 Sur 32 Sur 0 -- -- 48
2020-11-20 11:00:00 22.7 13 Sur 26 Sur 0 -- -- 49
2020-11-20 10:00:00 21.6 15 Sudeste 28 Sudeste 0 -- -- 64
2020-11-20 09:00:00 18.6 24 Sudeste 46 Este 0 -- -- 59
2020-11-20 08:00:00 13.4 24 Este 40 Sudeste 0 -- -- 82
2020-11-20 07:00:00 12.9 12 Sudeste 18 Este 0 -- -- 97
2020-11-20 06:00:00 13.5 9 Sudeste 23 Sudeste 0 -- -- 92
2020-11-20 05:00:00 15.3 13 Este 21 Sudeste 0 -- -- 57
2020-11-20 04:00:00 15.5 13 Este 20 Este 0 -- -- 60
2020-11-20 03:00:00 15 6 Este 17 Sudeste 0 -- -- 67
2020-11-20 02:00:00 14.3 7 Este 14 Este 0 -- -- 75
2020-11-20 01:00:00 12.7 4 Sudeste 10 Sur 0 -- -- 78
2020-11-20 00:00:00 12.3 0 Calma 6 Noroeste 0 -- -- 99
2020-11-19 23:00:00 12 2 Noroeste 11 Este 0 -- -- 97
2020-11-19 22:00:00 13.9 8 Este 19 Sudeste 0 -- -- 97
2020-11-19 21:00:00 14.1 9 Sudeste 19 Este 0 -- -- 97
2020-11-19 20:00:00 14.6 13 Sudeste 20 Sudeste 0 -- -- 96
2020-11-19 19:00:00 14.9 9 Sudeste 15 Sur 0 -- -- 96
2020-11-19 18:00:00 15.7 12 Sudeste 19 Sudeste 0 -- -- 92
2020-11-19 17:00:00 16.6 13 Sudeste 21 Sur 0 -- -- 88
2020-11-19 16:00:00 18.3 13 Sur 23 Sur 0 -- -- 80
2020-11-19 15:00:00 22 15 Sur 26 Sudeste 0 -- -- 68
2020-11-19 14:00:00 22.9 13 Sur 26 Sudeste 0 -- -- 67
2020-11-19 13:00:00 21 11 Sudeste 27 Sudeste 0 -- -- 71
2020-11-19 12:00:00 21.6 14 Sudeste 29 Sudeste 0 -- -- 64
2020-11-19 11:00:00 19.5 8 Sur 19 Este 0 -- -- 71
2020-11-19 10:00:00 16.4 10 Norte 34 Norte 0 -- -- 83
2020-11-19 09:00:00 14.2 23 Norte 41 Noroeste 0 -- -- 98
2020-11-19 08:00:00 14 21 Noroeste 41 Norte 0 -- -- 100
2020-11-19 07:00:00 14.3 26 Noroeste 43 Noroeste 0 -- -- 99
2020-11-19 06:00:00 14.3 26 Norte 44 Norte 0 -- -- 98
2020-11-19 05:00:00 13.9 33 Norte 45 Noroeste 0 -- -- 98
2020-11-19 04:00:00 13.9 30 Norte 44 Norte 0 -- -- 98
2020-11-19 03:00:00 14 31 Norte 43 Noroeste 0 -- -- 98
2020-11-19 02:00:00 14.7 33 Norte 49 Noroeste 0 -- -- 98
2020-11-19 01:00:00 14.3 32 Noroeste 45 Norte 0 -- -- 98
2020-11-19 00:00:00 14.5 32 Noroeste 46 Noroeste 0 -- -- 98
2020-11-18 23:00:00 14.4 30 Noroeste 40 Norte 0 -- -- 97
2020-11-18 22:00:00 14.8 29 Norte 40 Norte 0 -- -- 97
2020-11-18 21:00:00 14.8 26 Norte 37 Norte 0 -- -- 95
2020-11-18 20:00:00 15.4 22 Noroeste 31 Norte 0 -- -- 80
2020-11-18 19:00:00 15.2 24 Norte 36 Norte 0 -- -- 94
2020-11-18 18:00:00 15.9 23 Norte 35 Noroeste 0 -- -- 91
2020-11-18 17:00:00 19.6 12 Norte 24 Norte 0 -- -- 63
2020-11-18 16:00:00 25 5 Sudeste 16 Norte 0 -- -- 53
2020-11-18 15:00:00 21.6 9 Norte 22 Noroeste 0 -- -- 71
2020-11-18 14:00:00 25.5 4 Noroeste 15 Sur 0 -- -- 51
2020-11-18 13:00:00 25 6 Sur 23 Noroeste 0 -- -- 32
2020-11-18 12:00:00 27.6 10 Sur 21 Sudeste 0 -- -- 27
2020-11-18 11:00:00 27.9 14 Sudeste 23 Sudeste 0 -- -- 25
2020-11-18 10:00:00 27 16 Sudeste 22 Sudeste 0 -- -- 30
2020-11-18 09:00:00 23.7 17 Sudeste 25 Sudeste 0 -- -- 33
2020-11-18 08:00:00 19.5 16 Este 22 Este 0 -- -- 38
2020-11-18 07:00:00 18.6 13 Este 20 Sudeste 0 -- -- 40
2020-11-18 06:00:00 20.1 12 Nordeste 22 Sudeste 0 -- -- 33
2020-11-18 05:00:00 20.1 13 Este 26 Este 0 -- -- 33
2020-11-18 04:00:00 19.8 11 Este 21 Este 0 -- -- 34
2020-11-18 03:00:00 19 13 Norte 21 Norte 0 -- -- 32
2020-11-18 02:00:00 18.3 6 Nordeste 13 Nordeste 0 -- -- 37
2020-11-18 01:00:00 19.2 9 Nordeste 18 Nordeste 0 -- -- 36
2020-11-18 00:00:00 21 12 Nordeste 20 Este 0 -- -- 29
2020-11-17 23:00:00 20 13 Este 18 Este 0 -- -- 32
2020-11-17 22:00:00 17.1 4 Nordeste 8 Este 0 -- -- 43
2020-11-17 21:00:00 17.4 3 Nordeste 5 Este 0 -- -- 42
2020-11-17 20:00:00 17.6 2 Este 6 Este 0 -- -- 41
2020-11-17 19:00:00 18 2 Sur 6 Sudeste 0 -- -- 39
2020-11-17 18:00:00 18.8 3 Sudeste 11 Sudeste 0 -- -- 41
2020-11-17 17:00:00 21.7 6 Sudeste 17 Sur 0 -- -- 36
2020-11-17 16:00:00 26 11 Sudeste 21 Sudeste 0 -- -- 29
2020-11-17 15:00:00 27.4 14 Sur 28 Sur 0 -- -- 26
2020-11-17 14:00:00 28.3 13 Sur 27 Sur 0 -- -- 25
2020-11-17 13:00:00 28.1 11 Sur 32 Sur 0 -- -- 25
2020-11-17 12:00:00 27.9 17 Sur 35 Sudeste 0 -- -- 27
2020-11-17 11:00:00 27 21 Sur 31 Sudeste 0 -- -- 27
2020-11-17 10:00:00 25.6 15 Sudeste 30 Sudeste 0 -- -- 29
2020-11-17 09:00:00 19.6 20 Sudeste 31 Sudeste 0 -- -- 37
2020-11-17 08:00:00 19.1 20 Sudeste 27 Sudeste 0 -- -- 34
2020-11-17 07:00:00 18.8 17 Sudeste 25 Sudeste 0 -- -- 36
2020-11-17 06:00:00 19.4 19 Sudeste 28 Este 0 -- -- 33
2020-11-17 05:00:00 19.7 15 Sudeste 30 Sudeste 0 -- -- 33
2020-11-17 04:00:00 19.5 15 Sudeste 25 Sudeste 0 -- -- 36
2020-11-17 03:00:00 19.2 17 Sudeste 25 Sudeste 0 -- -- 34
2020-11-17 02:00:00 19.8 14 Sudeste 23 Sudeste 0 -- -- 33
2020-11-17 01:00:00 19.7 17 Sudeste 24 Sudeste 0 -- -- 34
2020-11-17 00:00:00 19.4 12 Sudeste 22 Sudeste 0 -- -- 34
2020-11-16 23:00:00 19.1 12 Sur 24 Sur 0 -- -- 34
2020-11-16 22:00:00 19.5 13 Sur 23 Sur 0 -- -- 33
2020-11-16 21:00:00 19 7 Sur 20 Sur 0 -- -- 35
2020-11-16 20:00:00 19 8 Sur 21 Sudeste 0 -- -- 37
2020-11-16 19:00:00 18.6 5 Sur 13 Sur 0 -- -- 44
2020-11-16 18:00:00 19.3 4 Sudoeste 17 Sudoeste 0 -- -- 40
2020-11-16 17:00:00 21 6 Sur 23 Sur 0 -- -- 40
2020-11-16 16:00:00 23.7 10 Sur 25 Sur 0 -- -- 40
2020-11-16 15:00:00 25 13 Sudeste 27 Sudeste 0 -- -- 36
2020-11-16 14:00:00 26 17 Sur 35 Sur 0 -- -- 33
2020-11-16 13:00:00 28 21 Sudeste 33 Sudeste 0 -- -- 30
2020-11-16 12:00:00 25.7 19 Sudeste 33 Sudeste 0 -- -- 33
2020-11-16 11:00:00 26.3 13 Sur 26 Sur 0 -- -- 36
2020-11-16 10:00:00 24.9 11 Sur 22 Sudeste 0 -- -- 30
2020-11-16 09:00:00 22.4 10 Sur 21 Sur 0 -- -- 32
2020-11-16 08:00:00 17.1 6 Sudeste 12 Sudeste 0 -- -- 51
2020-11-16 07:00:00 17 6 Sudeste 11 Sur 0 -- -- 50
2020-11-16 06:00:00 17.5 4 Sudeste 11 Sudoeste 0 -- -- 44
2020-11-16 05:00:00 18.9 6 Oeste 14 Oeste 0 -- -- 33
2020-11-16 04:00:00 18.3 3 Oeste 14 Sur 0 -- -- 41
2020-11-16 03:00:00 16 4 Sudeste 17 Sudeste 0 -- -- 57
2020-11-16 02:00:00 17.2 9 Este 17 Sudeste 0 -- -- 53
2020-11-16 01:00:00 18.3 6 Sur 17 Sur 0 -- -- 44
2020-11-16 00:00:00 18.9 6 Sudoeste 26 Sur 0 -- -- 41
2020-11-15 23:00:00 18.6 7 Sur 17 Sur 0 -- -- 42
2020-11-15 22:00:00 18.9 5 Oeste 18 Sur 0 -- -- 46
2020-11-15 21:00:00 18.8 9 Sudeste 18 Sur 0 -- -- 51
2020-11-15 20:00:00 18.4 9 Sudeste 19 Sur 0 -- -- 55
2020-11-15 19:00:00 19.2 6 Sur 19 Sur 0 -- -- 50
2020-11-15 18:00:00 19.2 5 Sudeste 15 Sudeste 0 -- -- 50
2020-11-15 17:00:00 21.3 5 Sudeste 12 Sudeste 0 -- -- 65
2020-11-15 16:00:00 24.3 5 Sur 19 Sudoeste 0 -- -- 49
2020-11-15 15:00:00 25.3 6 Sudeste 19 Oeste 0 -- -- 50
2020-11-15 14:00:00 23.5 8 Sur 26 Sur 0 -- -- 58
2020-11-15 13:00:00 23.6 5 Sur 19 Sudoeste 0 -- -- 55
2020-11-15 12:00:00 24.6 9 Sudeste 24 Sur 0 -- -- 56
2020-11-15 11:00:00 25.3 10 Sudeste 18 Sudeste 0 -- -- 54
2020-11-15 10:00:00 24.5 10 Sudeste 18 Sudeste 0 -- -- 47
2020-11-15 09:00:00 22.5 11 Sudeste 15 Sudeste 0 -- -- 51
2020-11-15 08:00:00 17.7 6 Este 12 Norte 0 -- -- 57
2020-11-15 07:00:00 17 5 Nordeste 9 Norte 0 -- -- 54
2020-11-15 06:00:00 17.3 6 Este 10 Este 0 -- -- 50
2020-11-15 05:00:00 19.2 9 Norte 22 Noroeste 0 -- -- 47
2020-11-15 04:00:00 16.9 3 Noroeste 9 Sudoeste 0 -- -- 59
2020-11-15 03:00:00 18.3 6 Oeste 15 Oeste 0 -- -- 50
2020-11-15 02:00:00 18.5 4 Oeste 19 Noroeste 0 -- -- 55
2020-11-15 01:00:00 18.5 4 Sudoeste 14 Sur 0 -- -- 55
2020-11-15 00:00:00 18.8 4 Oeste 21 Noroeste 0 -- -- 50
2020-11-14 23:00:00 18 6 Noroeste 15 Sudoeste 0 -- -- 53
2020-11-14 22:00:00 18.4 4 Sudeste 15 Oeste 0 -- -- 54
2020-11-14 21:00:00 18 7 Noroeste 12 Noroeste 0 -- -- 56
2020-11-14 20:00:00 18.1 3 Este 10 Noroeste 0 -- -- 57
2020-11-14 19:00:00 17.8 4 Nordeste 17 Norte 0 -- -- 62
2020-11-14 18:00:00 18.1 4 Este 10 Sudeste 0 -- -- 73
2020-11-14 17:00:00 19.8 6 Este 16 Nordeste 0 -- -- 71
2020-11-14 16:00:00 24.1 5 Este 14 Sudoeste 0 -- -- 60
2020-11-14 15:00:00 23.9 5 Sur 20 Sur 0 -- -- 54
2020-11-14 14:00:00 25.4 10 Sudeste 32 Sudeste 0 -- -- 50
2020-11-14 13:00:00 24.6 21 Sudeste 30 Sur 0 -- -- 45
2020-11-14 12:00:00 25.7 13 Sudeste 21 Sudeste 0 -- -- 39
2020-11-14 11:00:00 22.7 13 Sudeste 26 Este 0 -- -- 43
2020-11-14 10:00:00 20.1 6 Este 20 Sur 0 -- -- 39
2020-11-14 09:00:00 20.4 10 Sur 28 Sur 0 -- -- 41
2020-11-14 08:00:00 16.7 4 Sudoeste 31 Sur 0 -- -- 43
2020-11-14 07:00:00 16.8 15 Sur 30 Sur 0 -- -- 45
2020-11-14 06:00:00 16.7 6 Sudoeste 20 Sur 0 -- -- 42
2020-11-14 05:00:00 16.3 5 Sudoeste 27 Sur 0 -- -- 46
2020-11-14 04:00:00 16.2 8 Sur 25 Sur 0 -- -- 50
2020-11-14 03:00:00 16.1 13 Sur 30 Sur 0 -- -- 54
2020-11-14 02:00:00 16.2 10 Sur 34 Sur 0 -- -- 53
2020-11-14 01:00:00 16.7 10 Sur 31 Sur 0 -- -- 51
2020-11-14 00:00:00 16.6 10 Sur 32 Sur 0 -- -- 50
2020-11-13 23:00:00 17.1 16 Sur 35 Sudeste 0 -- -- 48
2020-11-13 22:00:00 17.7 17 Sur 31 Sur 0 -- -- 42
2020-11-13 21:00:00 17.1 16 Sur 30 Sur 0 -- -- 48
2020-11-13 20:00:00 17 16 Sudeste 28 Sudeste 0 -- -- 50
2020-11-13 19:00:00 16.8 11 Sur 24 Sur 0 -- -- 52
2020-11-13 18:00:00 17.2 14 Sur 24 Sur 0 -- -- 50
2020-11-13 17:00:00 17.9 16 Sur 32 Sur 0 -- -- 52
2020-11-13 16:00:00 18.6 18 Sur 35 Sudeste 0 -- -- 56
2020-11-13 15:00:00 19 16 Sur 35 Sur 0 -- -- 63
2020-11-13 14:00:00 19 18 Sudeste 37 Sudeste 0 -- -- 58
2020-11-13 13:00:00 19.2 18 Sur 40 Sur 0 -- -- 60
2020-11-13 12:00:00 18.1 21 Sudeste 32 Sudeste 0 -- -- 62
2020-11-13 11:00:00 17.3 13 Sudeste 26 Sudeste 0 -- -- 66
2020-11-13 10:00:00 16.6 18 Sudeste 30 Este 0 -- -- 73
2020-11-13 09:00:00 17 16 Este 21 Este 0 -- -- 74
2020-11-13 08:00:00 16.6 5 Sudeste 22 Noroeste 0 -- -- 58
2020-11-13 07:00:00 17.5 6 Oeste 24 Noroeste 0 -- -- 65
2020-11-13 06:00:00 16.9 2 Este 15 Sur 0 -- -- 72
2020-11-13 05:00:00 16.4 12 Sudeste 17 Sudeste 0 -- -- 76
2020-11-13 04:00:00 16.2 4 Sudeste 9 Sur 0 -- -- 68
2020-11-13 03:00:00 16.3 8 Sur 14 Sudeste 0 -- -- 66
2020-11-13 02:00:00 16.9 11 Sur 15 Sudeste 0 -- -- 50
2020-11-13 01:00:00 16.6 12 Sudeste 16 Sudeste 0 -- -- 56
2020-11-13 00:00:00 17.8 9 Sudeste 23 Sudeste 0 -- -- 37
2020-11-12 23:00:00 17.1 11 Sudeste 18 Sudeste 0 -- -- 39
2020-11-12 22:00:00 17.3 10 Este 14 Este 0 -- -- 39
2020-11-12 21:00:00 17.5 10 Este 14 Este 0 -- -- 40
2020-11-12 20:00:00 16.4 5 Sudeste 8 Este 0 -- -- 52
2020-11-12 19:00:00 16.6 6 Este 8 Sudeste 0 -- -- 48
2020-11-12 18:00:00 17.2 0 Calma 6 Este 0 -- -- 63
2020-11-12 17:00:00 19.5 3 Sudeste 9 Oeste 0 -- -- 64
2020-11-12 16:00:00 20.5 3 Oeste 9 Sudoeste 0 -- -- 52
2020-11-12 15:00:00 21.6 3 Sudoeste 12 Oeste 0 -- -- 78
2020-11-12 14:00:00 22.2 5 Oeste 21 Oeste 0 -- -- 75
2020-11-12 13:00:00 21.7 4 Oeste 14 Noroeste 0 -- -- 75
2020-11-12 12:00:00 23.8 10 Noroeste 19 Noroeste 0 -- -- 53
2020-11-12 11:00:00 21.7 6 Noroeste 12 Oeste 0 -- -- 59
2020-11-12 10:00:00 21 5 Noroeste 11 Noroeste 0 -- -- 59
2020-11-12 09:00:00 17.8 4 Noroeste 14 Noroeste 0 -- -- 66
2020-11-12 08:00:00 19.4 5 Norte 16 Oeste 0 -- -- 45
2020-11-12 07:00:00 17.7 11 Noroeste 18 Oeste 0 -- -- 67
2020-11-12 06:00:00 18.3 7 Noroeste 17 Noroeste 0 -- -- 62
2020-11-12 05:00:00 19 16 Noroeste 28 Noroeste 0 -- -- 60
2020-11-12 04:00:00 19 15 Noroeste 25 Noroeste 0 -- -- 62
2020-11-12 03:00:00 18.4 13 Noroeste 17 Noroeste 0 -- -- 57
2020-11-12 02:00:00 17.8 10 Norte 22 Noroeste 0.2 -- -- 61
2020-11-12 01:00:00 17.8 9 Noroeste 28 Noroeste 0 -- -- 28
2020-11-12 00:00:00 17.2 4 Noroeste 18 Noroeste 0 -- -- 29
2020-11-11 23:00:00 17.3 3 Norte 28 Noroeste 0 -- -- 31
2020-11-11 22:00:00 16.5 12 Noroeste 24 Noroeste 0 -- -- 49
2020-11-11 21:00:00 14.8 20 Noroeste 35 Noroeste 0 -- -- 57
2020-11-11 20:00:00 13.6 18 Noroeste 28 Noroeste 0 -- -- 97
2020-11-11 19:00:00 14.5 4 Noroeste 27 Noroeste 0 -- -- 82
2020-11-11 18:00:00 15.3 6 Noroeste 26 Noroeste 0 -- -- 67
2020-11-11 17:00:00 16.5 5 Oeste 14 Oeste 0 -- -- 90
2020-11-11 16:00:00 17.6 4 Sudeste 13 Sudoeste 0 -- -- 88
2020-11-11 15:00:00 17.5 3 Sudoeste 12 Oeste 0 -- -- 88
2020-11-11 14:00:00 19.9 5 Sudeste 12 Sudoeste 0 -- -- 76
2020-11-11 13:00:00 17.7 3 Sudoeste 11 Sudeste 0 -- -- 86
2020-11-11 12:00:00 18.5 8 Sudeste 15 Sudeste 0 -- -- 85
2020-11-11 11:00:00 18.2 7 Sur 13 Sudeste 0 -- -- 81
2020-11-11 10:00:00 15.3 4 Sudeste 14 Noroeste 0 -- -- 92
2020-11-11 09:00:00 15.3 4 Sudeste 17 Noroeste 0 -- -- 91
2020-11-11 08:00:00 11.9 2 Nordeste 31 Noroeste 0 -- -- 90
2020-11-11 07:00:00 11 8 Noroeste 16 Noroeste 0 -- -- 100
2020-11-11 06:00:00 12.6 4 Sudeste 16 Sudeste 0 -- -- 100
2020-11-11 05:00:00 12.3 13 Este 17 Sudeste 0 -- -- 100
2020-11-11 04:00:00 11.8 11 Este 13 Este 0 -- -- 100
2020-11-11 03:00:00 11.3 6 Este 10 Este 0 -- -- 100
2020-11-11 02:00:00 11.2 2 Este 6 Este 0 -- -- 100
2020-11-11 01:00:00 12.1 4 Sudeste 9 Este 0 -- -- 100
2020-11-11 00:00:00 12 4 Sudeste 10 Este 0 -- -- 100
2020-11-10 23:00:00 10.6 0 Calma 10 Norte 0 -- -- 100
2020-11-10 22:00:00 11.4 4 Este 10 Este 0 -- -- 100
2020-11-10 21:00:00 11.7 2 Nordeste 10 Este 0 -- -- 100
2020-11-10 20:00:00 13.1 7 Sudeste 15 Sudeste 0 -- -- 99
2020-11-10 19:00:00 13.6 12 Sudeste 17 Sudeste 0 -- -- 99
2020-11-10 18:00:00 13.5 13 Sudeste 21 Sudeste 0 -- -- 98
2020-11-10 17:00:00 14.2 16 Sudeste 23 Sur 0 -- -- 93
2020-11-10 16:00:00 17.5 13 Sudeste 30 Sudeste 0 -- -- 79
2020-11-10 15:00:00 18.1 19 Sudeste 35 Sudeste 0 -- -- 80
2020-11-10 14:00:00 18.1 21 Sudeste 38 Sudeste 0 -- -- 83
2020-11-10 13:00:00 18.6 26 Sudeste 42 Sudeste 0 -- -- 82
2020-11-10 12:00:00 16.4 22 Sudeste 37 Sudeste 0 -- -- 92
2020-11-10 11:00:00 14.6 22 Sudeste 36 Sur 0 -- -- 99
2020-11-10 10:00:00 14.3 28 Sudeste 41 Sudeste 0 -- -- 100
2020-11-10 09:00:00 13.4 23 Sudeste 43 Sudeste 0 -- -- 100
2020-11-10 08:00:00 12.8 21 Sudeste 33 Sudeste 0 -- -- 100
2020-11-10 07:00:00 12.3 24 Sudeste 32 Este 0 -- -- 100
2020-11-10 06:00:00 12.3 19 Sudeste 33 Sudeste 0 -- -- 100
2020-11-10 05:00:00 12.7 17 Sudeste 35 Sudeste 0.2 -- -- 100
2020-11-10 04:00:00 12.8 26 Sudeste 41 Sudeste 0 -- -- 100
2020-11-10 03:00:00 13 22 Sudeste 36 Sudeste 0 -- -- 100
2020-11-10 02:00:00 13.2 17 Sudeste 33 Este 0 -- -- 100
2020-11-10 01:00:00 13.1 14 Sudeste 27 Este 0.2 -- -- 100
2020-11-10 00:00:00 13.2 15 Sudeste 26 Este 0 -- -- 100
2020-11-09 23:00:00 13.1 17 Este 27 Este 0.2 -- -- 100
2020-11-09 22:00:00 13.3 13 Sudeste 32 Este 0 -- -- 100
2020-11-09 21:00:00 12.9 9 Este 26 Este 0 -- -- 100
2020-11-09 20:00:00 13.2 15 Este 28 Este 0.2 -- -- 99
2020-11-09 19:00:00 13.3 10 Este 22 Nordeste 0 -- -- 98
2020-11-09 18:00:00 13.8 5 Sudeste 22 Este 0.2 -- -- 97
2020-11-09 17:00:00 14.3 8 Este 23 Este 0 -- -- 92
2020-11-09 16:00:00 14.9 6 Nordeste 22 Este 0 -- -- 91
2020-11-09 15:00:00 16 6 Este 20 Este 0 -- -- 87
2020-11-09 14:00:00 15.7 8 Nordeste 18 Este 0.2 -- -- 89
2020-11-09 13:00:00 15 6 Nordeste 17 Nordeste 0.6 -- -- 96
2020-11-09 12:00:00 16 4 Sudeste 23 Sudeste 0 -- -- 93
2020-11-09 11:00:00 13.8 7 Nordeste 22 Nordeste 0 -- -- 97
2020-11-09 10:00:00 13.7 4 Sudeste 22 Nordeste 0.2 -- -- 100
2020-11-09 09:00:00 13.3 6 Nordeste 21 Este 0.2 -- -- 100
2020-11-09 08:00:00 12.7 7 Norte 19 Norte 0 -- -- 100
2020-11-09 07:00:00 12.7 4 Noroeste 24 Nordeste 0.2 -- -- 100
2020-11-09 06:00:00 12.4 2 Noroeste 20 Oeste 0 -- -- 100
2020-11-09 05:00:00 12.6 5 Norte 19 Oeste 0 -- -- 100
2020-11-09 04:00:00 12.5 4 Sudoeste 21 Noroeste 1 -- -- 100
2020-11-09 03:00:00 12.8 6 Noroeste 27 Norte 0.4 -- -- 100
2020-11-09 02:00:00 12.7 5 Noroeste 22 Oeste 0 -- -- 99
2020-11-09 01:00:00 12.6 5 Norte 18 Norte 0 -- -- 99
2020-11-09 00:00:00 12.4 16 Norte 24 Norte 0 -- -- 99
2020-11-08 23:00:00 12.4 13 Norte 23 Norte 0 -- -- 99
2020-11-08 22:00:00 12.4 11 Noroeste 17 Noroeste 0 -- -- 99
2020-11-08 21:00:00 12.8 4 Noroeste 13 Noroeste 0 -- -- 99
2020-11-08 20:00:00 12.8 4 Noroeste 15 Noroeste 0 -- -- 99
2020-11-08 19:00:00 12.3 9 Noroeste 14 Noroeste 0 -- -- 99
2020-11-08 18:00:00 12.7 8 Norte 18 Norte 0 -- -- 96
2020-11-08 17:00:00 14.1 6 Noroeste 21 Noroeste 0 -- -- 90
2020-11-08 16:00:00 14.3 10 Noroeste 21 Noroeste 0 -- -- 87
2020-11-08 15:00:00 14.5 12 Norte 22 Noroeste 0 -- -- 89
2020-11-08 14:00:00 15.6 10 Noroeste 22 Noroeste 0 -- -- 86
2020-11-08 13:00:00 14.8 10 Noroeste 16 Norte 0 -- -- 89
2020-11-08 12:00:00 15.3 8 Noroeste 17 Norte 0 -- -- 87
2020-11-08 11:00:00 15.3 8 Noroeste 17 Norte 0 -- -- 86
2020-11-08 10:00:00 14.9 8 Noroeste 24 Noroeste 0 -- -- 90
2020-11-08 09:00:00 13.4 18 Noroeste 29 Noroeste 0.2 -- -- 95
2020-11-08 08:00:00 12.4 19 Noroeste 28 Noroeste 0 -- -- 100
2020-11-08 07:00:00 12.1 19 Noroeste 26 Noroeste 0 -- -- 100
2020-11-08 06:00:00 12 11 Norte 17 Norte 0 -- -- 99
2020-11-08 05:00:00 12.3 12 Norte 15 Norte 0 -- -- 100
2020-11-08 04:00:00 12.5 8 Norte 13 Norte 0 -- -- 100
2020-11-08 03:00:00 12.1 5 Norte 12 Norte 0 -- -- 100
2020-11-08 02:00:00 11.7 0 Calma 3 Norte 0 -- -- 100
2020-11-08 01:00:00 11.8 0 Calma 5 Sudeste 0 -- -- 100
2020-11-08 00:00:00 11.8 3 Sudeste 6 Sudeste 0 -- -- 100
2020-11-07 23:00:00 12.1 3 Este 8 Sur 0 -- -- 100
2020-11-07 22:00:00 12.1 5 Este 6 Sudeste 0 -- -- 100
2020-11-07 21:00:00 12.5 3 Este 4 Sudeste 0 -- -- 100
2020-11-07 20:00:00 13.2 3 Norte 9 Noroeste 0 -- -- 99
2020-11-07 19:00:00 14.2 2 Sudeste 8 Sudeste 0 -- -- 100
2020-11-07 18:00:00 14.3 2 Sudoeste 6 Sudeste 0.2 -- -- 99
2020-11-07 17:00:00 14.4 2 Oeste 6 Sur 0.4 -- -- 98
2020-11-07 16:00:00 15.5 4 Sur 9 Sudeste 0 -- -- 94
2020-11-07 15:00:00 16.5 6 Sudeste 14 Sudeste 0 -- -- 89
2020-11-07 14:00:00 17.1 9 Sudeste 17 Sudeste 0 -- -- 87
2020-11-07 13:00:00 17.6 9 Sudeste 18 Sur 0 -- -- 85
2020-11-07 12:00:00 18.9 12 Sur 16 Sudeste 0 -- -- 84
2020-11-07 11:00:00 16.6 9 Sur 19 Sur 0 -- -- 90
2020-11-07 10:00:00 16.2 8 Sur 14 Sudeste 0 -- -- 89
2020-11-07 09:00:00 16.3 10 Sudeste 14 Sur 0 -- -- 95
2020-11-07 08:00:00 13.2 6 Sudeste 10 Sudeste 0 -- -- 100
2020-11-07 07:00:00 12.3 0 Calma 5 Sur 0 -- -- 100
2020-11-07 06:00:00 12.2 0 Calma 11 Sur 0 -- -- 100
2020-11-07 05:00:00 12.3 6 Sudeste 12 Sur 0 -- -- 100
2020-11-07 04:00:00 12 5 Sur 10 Sur 0 -- -- 100
2020-11-07 03:00:00 12.1 0 Calma 6 Sudoeste 0 -- -- 100
2020-11-07 02:00:00 12.1 0 Calma 5 Oeste 0 -- -- 100
2020-11-07 01:00:00 12.3 0 Calma 11 Noroeste 0 -- -- 98
2020-11-07 00:00:00 12.2 7 Oeste 13 Noroeste 0 -- -- 98
2020-11-06 23:00:00 11.8 9 Noroeste 18 Noroeste 0 -- -- 97
2020-11-06 22:00:00 12.2 16 Noroeste 27 Noroeste 0 -- -- 95
2020-11-06 21:00:00 12.5 18 Noroeste 31 Noroeste 0 -- -- 97
2020-11-06 20:00:00 12.6 6 Noroeste 20 Noroeste 0 -- -- 96
2020-11-06 19:00:00 13 10 Noroeste 24 Noroeste 0 -- -- 96
2020-11-06 18:00:00 13.4 12 Noroeste 29 Noroeste 0 -- -- 94
2020-11-06 17:00:00 13.9 12 Noroeste 36 Oeste 0 -- -- 93
2020-11-06 16:00:00 14.5 8 Noroeste 35 Noroeste 0 -- -- 92
2020-11-06 15:00:00 15.1 13 Noroeste 38 Oeste 0 -- -- 89
2020-11-06 14:00:00 15.5 13 Noroeste 45 Noroeste 0 -- -- 90
2020-11-06 13:00:00 16.3 18 Noroeste 43 Noroeste 0 -- -- 84
2020-11-06 12:00:00 15.1 17 Noroeste 40 Noroeste 0 -- -- 85
2020-11-06 11:00:00 14.3 16 Noroeste 44 Noroeste 1 -- -- 100
2020-11-06 10:00:00 13.5 18 Noroeste 53 Oeste 2.4 -- -- 100
2020-11-06 09:00:00 12.9 19 Noroeste 46 Oeste 1 -- -- 100
2020-11-06 08:00:00 12.9 12 Oeste 35 Oeste 0 -- -- 99
2020-11-06 07:00:00 12.2 12 Noroeste 44 Noroeste 0 -- -- 99
2020-11-06 06:00:00 11.6 11 Noroeste 24 Oeste 0.2 -- -- 100
2020-11-06 05:00:00 11.6 10 Oeste 31 Noroeste 0 -- -- 98
2020-11-06 04:00:00 12.1 12 Oeste 27 Noroeste 0 -- -- 100
2020-11-06 03:00:00 11 6 Noroeste 18 Oeste 0 -- -- 100
2020-11-06 02:00:00 10.8 3 Noroeste 21 Noroeste 0 -- -- 100
2020-11-06 01:00:00 12.3 9 Oeste 25 Oeste 1.8 -- -- 100
2020-11-06 00:00:00 11.5 4 Noroeste 15 Sur 0.2 -- -- 99
2020-11-05 23:00:00 11.2 5 Oeste 22 Noroeste 0 -- -- 98
2020-11-05 22:00:00 11.7 12 Noroeste 24 Noroeste 0 -- -- 96
2020-11-05 21:00:00 11.8 10 Oeste 31 Oeste 0 -- -- 99
2020-11-05 20:00:00 11.8 10 Oeste 34 Noroeste 0 -- -- 97
2020-11-05 19:00:00 11.8 12 Noroeste 26 Noroeste 0 -- -- 96
2020-11-05 18:00:00 12.3 10 Noroeste 26 Noroeste 0 -- -- 91
2020-11-05 17:00:00 13 11 Noroeste 26 Noroeste 0 -- -- 88
2020-11-05 16:00:00 16.4 9 Noroeste 24 Oeste 0 -- -- 74
2020-11-05 15:00:00 14.5 5 Noroeste 14 Oeste 0 -- -- 83
2020-11-05 14:00:00 14.5 6 Oeste 19 Oeste 0 -- -- 82
2020-11-05 13:00:00 14.1 4 Oeste 21 Oeste 0 -- -- 89
2020-11-05 12:00:00 12.9 8 Oeste 22 Sudoeste 0 -- -- 89
2020-11-05 11:00:00 13.2 10 Oeste 25 Oeste 0 -- -- 90
2020-11-05 10:00:00 13.4 6 Oeste 18 Noroeste 0 -- -- 84
2020-11-05 09:00:00 12.1 8 Noroeste 21 Oeste 0 -- -- 92
2020-11-05 08:00:00 10.6 8 Oeste 21 Noroeste 0 -- -- 100
2020-11-05 07:00:00 10.7 8 Noroeste 27 Oeste 0 -- -- 100
2020-11-05 06:00:00 11.1 7 Noroeste 22 Noroeste 0 -- -- 100
2020-11-05 05:00:00 10.7 8 Noroeste 29 Oeste 0 -- -- 100
2020-11-05 04:00:00 10.6 11 Noroeste 26 Oeste 0 -- -- 100
2020-11-05 03:00:00 11.4 15 Noroeste 32 Noroeste 0.4 -- -- 100
2020-11-05 02:00:00 11.7 11 Noroeste 32 Norte 1 -- -- 100
2020-11-05 01:00:00 11.8 13 Noroeste 37 Noroeste 1.2 -- -- 100
2020-11-05 00:00:00 11.7 14 Noroeste 34 Nordeste 0.8 -- -- 100
2020-11-04 23:00:00 11.5 9 Noroeste 31 Norte 1 -- -- 100
2020-11-04 22:00:00 11.7 12 Norte 30 Norte 1 -- -- 100
2020-11-04 21:00:00 12 22 Norte 37 Noroeste 1.8 -- -- 100
2020-11-04 20:00:00 12.5 14 Norte 32 Norte 1.8 -- -- 100
2020-11-04 19:00:00 12.8 15 Norte 36 Nordeste 2.6 -- -- 100
2020-11-04 18:00:00 12.6 22 Norte 43 Norte 2.8 -- -- 100
2020-11-04 17:00:00 12.9 16 Norte 28 Norte 2.6 -- -- 100
2020-11-04 16:00:00 13.1 9 Norte 30 Nordeste 5.4 -- -- 100
2020-11-04 15:00:00 13.7 7 Nordeste 28 Este 1.4 -- -- 100
2020-11-04 14:00:00 13.9 5 Nordeste 28 Nordeste 5 -- -- 100
2020-11-04 13:00:00 13.9 9 Norte 27 Este 2.6 -- -- 100
2020-11-04 12:00:00 14.2 11 Nordeste 32 Nordeste 1.6 -- -- 100
2020-11-04 11:00:00 13.8 14 Nordeste 33 Este 3 -- -- 100
2020-11-04 10:00:00 14.2 8 Nordeste 35 Este 8 -- -- 100
2020-11-04 09:00:00 14 5 Este 30 Este 0.4 -- -- 100
2020-11-04 08:00:00 14 12 Este 33 Este 0.2 -- -- 100
2020-11-04 07:00:00 13.7 11 Nordeste 31 Este 0.2 -- -- 100
2020-11-04 06:00:00 13.7 12 Nordeste 37 Este 0.2 -- -- 99
2020-11-04 05:00:00 14 12 Nordeste 36 Este 0.2 -- -- 100
2020-11-04 04:00:00 13.9 10 Nordeste 43 Este 0 -- -- 99
2020-11-04 03:00:00 13.9 15 Nordeste 36 Este 0.4 -- -- 99
2020-11-04 02:00:00 14.4 11 Este 32 Este 0.4 -- -- 98
2020-11-04 01:00:00 14.1 12 Este 43 Este 0 -- -- 94
2020-11-04 00:00:00 14.1 18 Este 47 Este 0 -- -- 96
2020-11-03 23:00:00 14.2 14 Este 40 Este 0 -- -- 95
2020-11-03 22:00:00 14.3 14 Este 40 Nordeste 0 -- -- 95
2020-11-03 21:00:00 14.4 10 Este 35 Este 0 -- -- 96
2020-11-03 20:00:00 14.4 13 Nordeste 35 Este 0 -- -- 96
2020-11-03 19:00:00 14.2 11 Norte 40 Este 0 -- -- 95
2020-11-03 18:00:00 14.5 12 Norte 40 Noroeste 0 -- -- 96
2020-11-03 17:00:00 14.8 16 Norte 38 Noroeste 0 -- -- 95
2020-11-03 16:00:00 15.4 6 Este 28 Noroeste 0 -- -- 92
2020-11-03 15:00:00 15.7 7 Noroeste 29 Nordeste 0 -- -- 90
2020-11-03 14:00:00 15.9 6 Nordeste 25 Noroeste 0 -- -- 89
2020-11-03 13:00:00 15.7 9 Nordeste 27 Este 0 -- -- 89
2020-11-03 12:00:00 16.2 10 Nordeste 36 Nordeste 0 -- -- 89
2020-11-03 11:00:00 15.4 9 Nordeste 35 Este 0 -- -- 93
2020-11-03 10:00:00 15.2 10 Nordeste 33 Este 0 -- -- 93
2020-11-03 09:00:00 14.5 9 Nordeste 36 Nordeste 0 -- -- 96
2020-11-03 08:00:00 14 11 Nordeste 43 Este 0 -- -- 96
2020-11-03 07:00:00 14 12 Nordeste 36 Nordeste 0 -- -- 98
2020-11-03 06:00:00 13.9 14 Norte 35 Este 0 -- -- 98
2020-11-03 05:00:00 13.9 15 Norte 39 Norte 0 -- -- 99
2020-11-03 04:00:00 14.6 10 Noroeste 34 Noroeste 0.2 -- -- 99
2020-11-03 03:00:00 14.4 11 Norte 40 Noroeste 0 -- -- 97
2020-11-03 02:00:00 14.5 10 Noroeste 42 Noroeste 0 -- -- 97
2020-11-03 01:00:00 14.4 11 Noroeste 37 Noroeste 0 -- -- 97
2020-11-03 00:00:00 14.5 13 Noroeste 44 Noroeste 0 -- -- 96
2020-11-02 23:00:00 14.7 13 Norte 32 Norte 0 -- -- 95
2020-11-02 22:00:00 14.6 13 Noroeste 36 Noroeste 0 -- -- 96
2020-11-02 21:00:00 14.3 17 Norte 31 Norte 0 -- -- 92
2020-11-02 20:00:00 14.4 18 Norte 36 Norte 0 -- -- 91
2020-11-02 19:00:00 14.6 13 Norte 32 Norte 0 -- -- 92
2020-11-02 18:00:00 15 17 Norte 36 Norte 0 -- -- 92
2020-11-02 17:00:00 15.3 12 Norte 35 Norte 0 -- -- 92
2020-11-02 16:00:00 15.7 16 Norte 39 Noroeste 0 -- -- 86
2020-11-02 15:00:00 15.8 19 Noroeste 39 Noroeste 0 -- -- 84
2020-11-02 14:00:00 17 18 Norte 37 Nordeste 0 -- -- 68
2020-11-02 13:00:00 17.4 24 Norte 44 Norte 0 -- -- 63
2020-11-02 12:00:00 16.9 18 Norte 35 Nordeste 0 -- -- 69
2020-11-02 11:00:00 16.7 17 Norte 41 Norte 0 -- -- 64
2020-11-02 10:00:00 16.9 20 Norte 44 Nordeste 0 -- -- 67
2020-11-02 09:00:00 17.5 21 Nordeste 39 Nordeste 0 -- -- 42
2020-11-02 08:00:00 17.8 20 Nordeste 42 Nordeste 0 -- -- 35
2020-11-02 07:00:00 17.5 22 Nordeste 42 Nordeste 0 -- -- 34
2020-11-02 06:00:00 17.7 18 Nordeste 39 Nordeste 0 -- -- 33
2020-11-02 05:00:00 17.9 13 Norte 30 Norte 0 -- -- 32
2020-11-02 04:00:00 18.1 12 Nordeste 30 Este 0 -- -- 30
2020-11-02 03:00:00 18.1 15 Nordeste 32 Nordeste 0 -- -- 29
2020-11-02 02:00:00 18.1 11 Este 41 Este 0 -- -- 29
2020-11-02 01:00:00 18.2 20 Este 38 Este 0 -- -- 31
2020-11-02 00:00:00 18.7 20 Este 43 Este 0 -- -- 27
2020-11-01 23:00:00 19.3 22 Este 43 Nordeste 0 -- -- 28
2020-11-01 22:00:00 19.1 26 Este 45 Este 0 -- -- 31
2020-11-01 21:00:00 19.4 24 Este 40 Este 0 -- -- 29
2020-11-01 20:00:00 19.4 14 Este 34 Este 0 -- -- 28
2020-11-01 19:00:00 19.2 20 Este 35 Este 0 -- -- 27
2020-11-01 18:00:00 18.4 7 Este 25 Este 0 -- -- 44
2020-11-01 17:00:00 20.6 9 Sudeste 16 Sur 0 -- -- 45
2020-11-01 16:00:00 24.2 10 Sudeste 22 Sur 0 -- -- 40
2020-11-01 15:00:00 26 15 Sur 25 Sudeste 0 -- -- 34
2020-11-01 14:00:00 27.9 15 Sudeste 35 Sudeste 0 -- -- 30
2020-11-01 13:00:00 28.5 17 Sudeste 35 Sudeste 0 -- -- 32
2020-11-01 12:00:00 27.6 23 Sudeste 41 Sur 0 -- -- 29
2020-11-01 11:00:00 27.6 21 Sudeste 37 Este 0 -- -- 39
2020-11-01 10:00:00 25.6 18 Sudeste 42 Este 0 -- -- 37
2020-11-01 09:00:00 21.9 23 Este 46 Este 0 -- -- 36
2020-11-01 08:00:00 19.2 24 Este 45 Sudeste 0 -- -- 37
2020-11-01 07:00:00 17.9 30 Este 49 Sudeste 0 -- -- 39
2020-11-01 06:00:00 18.8 26 Este 48 Sudeste 0 -- -- 34
2020-11-01 05:00:00 19.5 29 Este 58 Sudeste 0 -- -- 32
2020-11-01 04:00:00 19.4 29 Este 58 Sudeste 0 -- -- 30
2020-11-01 03:00:00 18.2 24 Sudeste 35 Sudeste 0 -- -- 33
2020-11-01 02:00:00 18.3 22 Sudeste 31 Sudeste 0 -- -- 34
2020-11-01 01:00:00 18.8 23 Este 39 Este 0 -- -- 32
2020-11-01 00:00:00 18.8 27 Este 37 Este 0 -- -- 30
2020-10-31 23:00:00 18.6 26 Este 40 Sudeste 0 -- -- 33
2020-10-31 22:00:00 19 28 Este 39 Sudeste 0 -- -- 32
2020-10-31 21:00:00 18.7 21 Este 40 Este 0 -- -- 34
2020-10-31 20:00:00 18.6 21 Sudeste 38 Este 0 -- -- 35
2020-10-31 19:00:00 19.3 27 Sudeste 41 Este 0 -- -- 31
2020-10-31 18:00:00 19.7 24 Sudeste 42 Este 0 -- -- 33
2020-10-31 17:00:00 20.6 20 Sudeste 44 Sudeste 0 -- -- 31
2020-10-31 16:00:00 23.3 30 Sudeste 51 Sudeste 0 -- -- 28
2020-10-31 15:00:00 25 32 Sudeste 52 Este 0 -- -- 25
2020-10-31 14:00:00 26.4 35 Sudeste 54 Sudeste 0 -- -- 23
2020-10-31 13:00:00 27.3 31 Sudeste 51 Sudeste 0 -- -- 26
2020-10-31 12:00:00 27.2 33 Sudeste 59 Sur 0 -- -- 27
2020-10-31 11:00:00 25.4 37 Sudeste 62 Sudeste 0 -- -- 28
2020-10-31 10:00:00 23.1 46 Sudeste 62 Sudeste 0 -- -- 32
2020-10-31 09:00:00 21.1 43 Sudeste 57 Sudeste 0 -- -- 38
2020-10-31 08:00:00 17.9 37 Sudeste 59 Sudeste 0 -- -- 49
2020-10-31 07:00:00 16.9 31 Sudeste 57 Sudeste 0 -- -- 52
2020-10-31 06:00:00 17 39 Sudeste 58 Sudeste 0 -- -- 50
2020-10-31 05:00:00 17.7 43 Sudeste 68 Sudeste 0 -- -- 44
2020-10-31 04:00:00 17.9 41 Sudeste 62 Sudeste 0 -- -- 43
2020-10-31 03:00:00 18.9 46 Sudeste 60 Sudeste 0 -- -- 36
2020-10-31 02:00:00 19.3 43 Sudeste 58 Sudeste 0 -- -- 31
2020-10-31 01:00:00 19.7 41 Este 55 Este 0 -- -- 29
2020-10-31 00:00:00 18.5 30 Sudeste 47 Sudeste 0 -- -- 33
2020-10-30 23:00:00 18.4 27 Este 42 Este 0 -- -- 31
2020-10-30 22:00:00 17.3 27 Sudeste 38 Sudeste 0 -- -- 42
2020-10-30 21:00:00 16.4 18 Sudeste 46 Sudeste 0 -- -- 53
2020-10-30 20:00:00 18.8 31 Sudeste 44 Este 0 -- -- 38
2020-10-30 19:00:00 18.7 23 Este 36 Este 0 -- -- 37
2020-10-30 18:00:00 17.3 8 Este 14 Este 0 -- -- 69
2020-10-30 17:00:00 20.1 3 Este 11 Sudeste 0 -- -- 73
2020-10-30 16:00:00 23.4 5 Sudeste 14 Sur 0 -- -- 69
2020-10-30 15:00:00 24.7 9 Sudeste 18 Sur 0 -- -- 64
2020-10-30 14:00:00 25 8 Sudeste 20 Sur 0 -- -- 58
2020-10-30 13:00:00 22.8 8 Sur 23 Norte 0 -- -- 69
2020-10-30 12:00:00 18.6 12 Norte 23 Norte 0 -- -- 83
2020-10-30 11:00:00 19.3 7 Este 24 Norte 0 -- -- 76
2020-10-30 10:00:00 17.5 9 Norte 32 Noroeste 0 -- -- 84
2020-10-30 09:00:00 15.6 19 Noroeste 36 Noroeste 0 -- -- 92
2020-10-30 08:00:00 14.3 23 Noroeste 36 Noroeste 0 -- -- 99
2020-10-30 07:00:00 13.8 23 Noroeste 33 Norte 0 -- -- 100
2020-10-30 06:00:00 13.8 22 Noroeste 35 Noroeste 0 -- -- 99
2020-10-30 05:00:00 14.1 23 Noroeste 43 Noroeste 0 -- -- 99
2020-10-30 04:00:00 14 26 Noroeste 44 Noroeste 0 -- -- 99
2020-10-30 03:00:00 14.1 26 Noroeste 40 Norte 0 -- -- 98
2020-10-30 02:00:00 13.9 23 Noroeste 43 Norte 0 -- -- 98
2020-10-30 01:00:00 14.1 24 Noroeste 42 Noroeste 0 -- -- 99
2020-10-30 00:00:00 13.6 28 Noroeste 46 Noroeste 0 -- -- 95
2020-10-29 23:00:00 13.6 26 Noroeste 41 Norte 0 -- -- 99
2020-10-29 22:00:00 14 23 Noroeste 42 Noroeste 0 -- -- 100
2020-10-29 21:00:00 13.6 27 Noroeste 42 Noroeste 0 -- -- 99
2020-10-29 20:00:00 13.3 26 Noroeste 42 Noroeste 0 -- -- 97
2020-10-29 19:00:00 13.5 27 Noroeste 42 Noroeste 0 -- -- 96
2020-10-29 18:00:00 14.2 21 Noroeste 34 Noroeste 0 -- -- 95
2020-10-29 17:00:00 15 21 Noroeste 36 Noroeste 0 -- -- 89
2020-10-29 16:00:00 15.9 19 Noroeste 35 Noroeste 0 -- -- 87
2020-10-29 15:00:00 16.6 17 Noroeste 33 Oeste 0 -- -- 81
2020-10-29 14:00:00 17.2 13 Noroeste 32 Norte 0 -- -- 74
2020-10-29 13:00:00 17 9 Noroeste 25 Noroeste 0 -- -- 76
2020-10-29 12:00:00 15.5 7 Oeste 29 Noroeste 0 -- -- 82
2020-10-29 11:00:00 15.7 7 Noroeste 30 Noroeste 0 -- -- 79
2020-10-29 10:00:00 14.2 5 Este 29 Noroeste 0 -- -- 90
2020-10-29 09:00:00 13.6 7 Este 32 Norte 0 -- -- 86
2020-10-29 08:00:00 13 7 Norte 38 Norte 0 -- -- 91
2020-10-29 07:00:00 12.6 6 Sudoeste 32 Este 0 -- -- 96
2020-10-29 06:00:00 12.6 7 Noroeste 23 Noroeste 0 -- -- 88
2020-10-29 05:00:00 12.5 4 Noroeste 27 Oeste 0 -- -- 91
2020-10-29 04:00:00 12.3 5 Noroeste 26 Noroeste 0 -- -- 92
2020-10-29 03:00:00 12.4 9 Noroeste 27 Norte 0.2 -- -- 97
2020-10-29 02:00:00 12.6 5 Este 20 Noroeste 0 -- -- 96
2020-10-29 01:00:00 12.3 8 Norte 28 Nordeste 0 -- -- 94
2020-10-29 00:00:00 12.5 8 Norte 26 Noroeste 0 -- -- 97
2020-10-28 23:00:00 12.6 9 Noroeste 35 Noroeste 0 -- -- 98
2020-10-28 22:00:00 12.8 8 Oeste 29 Norte 0 -- -- 100
2020-10-28 21:00:00 12.7 9 Noroeste 30 Noroeste 0.2 -- -- 100
2020-10-28 20:00:00 13.2 5 Noroeste 22 Noroeste 1 -- -- 100
2020-10-28 19:00:00 13.1 8 Noroeste 22 Noroeste 0 -- -- 99
2020-10-28 18:00:00 13.1 6 Sudoeste 28 Este 0 -- -- 98
2020-10-28 17:00:00 13.3 5 Oeste 27 Oeste 0.2 -- -- 98
2020-10-28 16:00:00 13.8 6 Oeste 27 Oeste 0 -- -- 95
2020-10-28 15:00:00 14.3 8 Oeste 25 Oeste 0 -- -- 91
2020-10-28 14:00:00 14.6 6 Este 29 Noroeste 0 -- -- 88
2020-10-28 13:00:00 13.6 10 Noroeste 32 Noroeste 0.6 -- -- 98
2020-10-28 12:00:00 13.6 5 Noroeste 25 Norte 0.2 -- -- 97
2020-10-28 11:00:00 13.6 7 Norte 26 Noroeste 0 -- -- 96
2020-10-28 10:00:00 13.6 7 Oeste 31 Noroeste 0 -- -- 86
2020-10-28 09:00:00 12.9 7 Nordeste 27 Sudeste 0 -- -- 92
2020-10-28 08:00:00 12.5 8 Sudoeste 33 Oeste 0 -- -- 98
2020-10-28 07:00:00 12.4 6 Sudeste 28 Sudeste 0 -- -- 96
2020-10-28 06:00:00 12.4 6 Norte 24 Noroeste 0 -- -- 98
2020-10-28 05:00:00 12.5 8 Sur 24 Noroeste 0.4 -- -- 100
2020-10-28 04:00:00 12.5 5 Noroeste 19 Norte 0.4 -- -- 98
2020-10-28 03:00:00 13 5 Oeste 20 Norte 0 -- -- 96
2020-10-28 02:00:00 12.9 5 Oeste 22 Nordeste 0 -- -- 96
2020-10-28 01:00:00 13.2 6 Norte 22 Noroeste 0.2 -- -- 98
2020-10-28 00:00:00 13.1 7 Norte 24 Noroeste 0.2 -- -- 98
2020-10-27 23:00:00 13.6 6 Norte 29 Este 0 -- -- 96
2020-10-27 22:00:00 13.6 6 Oeste 21 Oeste 0 -- -- 97
2020-10-27 21:00:00 13.4 9 Norte 33 Sudeste 0 -- -- 96
2020-10-27 20:00:00 13.5 5 Oeste 29 Noroeste 0 -- -- 97
2020-10-27 19:00:00 13.7 9 Norte 35 Oeste 0 -- -- 96
2020-10-27 18:00:00 14 8 Noroeste 28 Noroeste 0 -- -- 94
2020-10-27 17:00:00 14.7 10 Noroeste 30 Noroeste 0 -- -- 92
2020-10-27 16:00:00 16.9 8 Norte 27 Norte 0 -- -- 82
2020-10-27 15:00:00 17.4 8 Noroeste 36 Noroeste 0 -- -- 78
2020-10-27 14:00:00 17.6 10 Noroeste 35 Oeste 0 -- -- 73
2020-10-27 13:00:00 17 16 Noroeste 46 Noroeste 0 -- -- 77
2020-10-27 12:00:00 16.9 10 Noroeste 34 Norte 0 -- -- 82
2020-10-27 11:00:00 15.1 8 Oeste 39 Oeste 0 -- -- 91
2020-10-27 10:00:00 14.7 5 Noroeste 20 Noroeste 0 -- -- 98
2020-10-27 09:00:00 14.6 9 Noroeste 29 Noroeste 0 -- -- 97
2020-10-27 08:00:00 14.4 7 Norte 26 Nordeste 0 -- -- 98
2020-10-27 07:00:00 14.1 7 Norte 31 Nordeste 0 -- -- 99
2020-10-27 06:00:00 13.9 11 Nordeste 27 Nordeste 0 -- -- 97
2020-10-27 05:00:00 13.5 9 Nordeste 23 Este 0 -- -- 96
2020-10-27 04:00:00 13.7 8 Este 25 Nordeste 0 -- -- 96
2020-10-27 03:00:00 13.9 7 Norte 22 Nordeste 0 -- -- 97
2020-10-27 02:00:00 14.1 5 Norte 25 Nordeste 0 -- -- 97
2020-10-27 01:00:00 14.2 6 Norte 25 Este 0 -- -- 98
2020-10-27 00:00:00 14 11 Este 27 Este 0 -- -- 96
2020-10-26 23:00:00 14.3 9 Este 26 Este 0 -- -- 95
2020-10-26 22:00:00 14.1 6 Norte 26 Norte 0 -- -- 97
2020-10-26 21:00:00 14.2 8 Nordeste 31 Este 0 -- -- 98
2020-10-26 20:00:00 13.9 11 Norte 37 Nordeste 0 -- -- 97
2020-10-26 19:00:00 13.7 19 Norte 39 Norte 0 -- -- 95
2020-10-26 18:00:00 14 17 Nordeste 40 Norte 0 -- -- 92
2020-10-26 17:00:00 14.7 17 Norte 37 Norte 0 -- -- 88
2020-10-26 16:00:00 16.4 15 Norte 30 Nordeste 0 -- -- 80
2020-10-26 15:00:00 17.1 10 Norte 30 Nordeste 0 -- -- 77
2020-10-26 14:00:00 18.5 6 Oeste 18 Este 0 -- -- 71
2020-10-26 13:00:00 19.1 7 Sudeste 25 Este 0 -- -- 60
2020-10-26 12:00:00 17.6 8 Sudeste 34 Nordeste 0 -- -- 71
2020-10-26 11:00:00 16.6 9 Norte 40 Nordeste 0 -- -- 80
2020-10-26 10:00:00 16.3 10 Sudeste 37 Norte 0 -- -- 82
2020-10-26 09:00:00 15.2 10 Norte 37 Norte 0 -- -- 85
2020-10-26 08:00:00 13.2 18 Norte 38 Nordeste 0 -- -- 94
2020-10-26 07:00:00 13.1 12 Norte 34 Nordeste 0 -- -- 98
2020-10-26 06:00:00 12.7 9 Norte 31 Nordeste 0 -- -- 96
2020-10-26 05:00:00 12.7 11 Norte 33 Norte 0 -- -- 97
2020-10-26 04:00:00 12.6 13 Norte 42 Norte 0 -- -- 95
2020-10-26 03:00:00 12.7 17 Norte 37 Nordeste 0 -- -- 95
2020-10-26 02:00:00 13 17 Norte 37 Nordeste 0 -- -- 97
2020-10-26 01:00:00 12.8 17 Norte 38 Nordeste 0 -- -- 96
2020-10-26 00:00:00 12.8 18 Norte 37 Nordeste 0 -- -- 95
2020-10-25 23:00:00 13.2 16 Norte 35 Norte 0 -- -- 96
2020-10-25 22:00:00 13.1 16 Norte 36 Nordeste 0 -- -- 95
2020-10-25 21:00:00 13.2 9 Norte 33 Nordeste 0 -- -- 95
2020-10-25 20:00:00 13 25 Norte 41 Nordeste 0 -- -- 94
2020-10-25 19:00:00 12.9 19 Norte 37 Norte 0 -- -- 94
2020-10-25 18:00:00 13.4 18 Norte 34 Nordeste 0 -- -- 94
2020-10-25 17:00:00 14.3 19 Norte 41 Norte 0 -- -- 87
2020-10-25 16:00:00 15.8 13 Norte 37 Norte 0 -- -- 83
2020-10-25 15:00:00 15.9 19 Norte 39 Norte 0 -- -- 82
2020-10-25 14:00:00 16.7 15 Norte 34 Nordeste 0 -- -- 78
2020-10-25 13:00:00 15.2 15 Norte 31 Nordeste 0 -- -- 84
2020-10-25 12:00:00 16.7 13 Norte 30 Este 0 -- -- 83
2020-10-25 11:00:00 16.1 14 Norte 37 Nordeste 0 -- -- 82
2020-10-25 10:00:00 15.5 13 Norte 31 Norte 0 -- -- 86
2020-10-25 09:00:00 14.8 7 Norte 25 Nordeste 0 -- -- 94
2020-10-25 08:00:00 13.4 10 Norte 35 Norte 0 -- -- 99
2020-10-25 07:00:00 12.9 13 Norte 29 Nordeste 0 -- -- 96
2020-10-25 06:00:00 12.6 13 Nordeste 32 Nordeste 0 -- -- 94
2020-10-25 05:00:00 12.9 15 Norte 36 Nordeste 0 -- -- 96
2020-10-25 04:00:00 13.3 8 Nordeste 31 Sudeste 0 -- -- 97
2020-10-25 03:00:00 12.9 12 Este 31 Este 0 -- -- 96
2020-10-25 02:00:00 12.8 6 Sudoeste 30 Norte 0 -- -- 95
2020-10-25 01:00:00 13.2 16 Norte 43 Norte 0 -- -- 92
2020-10-25 00:00:00 13.1 11 Norte 32 Sudeste 0 -- -- 93